Station Historical Data
Daily Summary for March 23, 2017 Units:  English    Metric   Both
« Previous Day
Next Day »
Daily Weekly Monthly Yearly Custom
  High: Low: Average:
Temperature: 40.9 °F 15.1 °F 28.7 °F
Dew Point: 19.3 °F 4.7 °F 13.5 °F
Humidity: 85% 23% 57%
Wind Speed: 10.0mph 0.0mph 1.6mph
Wind Gust: 11.0mph - -
Wind- - South
Pressure: 30.66 in 30.33 in -
Precipitation: 0.00 in    
Historical Graphs
 
 
Tabular Data for March 23, 2017
Time Temperature Dew Point Pressure Wind Wind Speed Wind Gust Humidity Rainfall Rate (Hourly)
00:04 18.9 °F 11.0 °F 30.57 in Calm     71% 0.00 in
00:09 19.1 °F 10.9 °F 30.57 in Calm     70% 0.00 in
00:14 19.1 °F 10.9 °F 30.57 in Calm     70% 0.00 in
00:19 18.8 °F 10.3 °F 30.57 in Calm     69% 0.00 in
00:24 18.9 °F 11.0 °F 30.57 in Calm     71% 0.00 in
00:29 19.2 °F 11.0 °F 30.57 in Calm     70% 0.00 in
00:34 19.0 °F 11.1 °F 30.57 in Calm     71% 0.00 in
00:39 19.3 °F 11.7 °F 30.57 in Calm     72% 0.00 in
00:44 20.2 °F 12.3 °F 30.57 in Calm     71% 0.00 in
00:49 20.5 °F 11.9 °F 30.57 in Calm     69% 0.00 in
00:54 20.7 °F 11.8 °F 30.57 in Calm     68% 0.00 in
00:59 20.7 °F 11.8 °F 30.57 in Calm     68% 0.00 in
01:04 20.6 °F 12.0 °F 30.57 in Calm     69% 0.00 in
01:09 20.5 °F 11.6 °F 30.58 in Calm     68% 0.00 in
01:14 20.4 °F 11.8 °F 30.58 in Calm     69% 0.00 in
01:19 20.3 °F 11.7 °F 30.58 in Calm     69% 0.00 in
01:24 20.4 °F 12.2 °F 30.58 in Calm     70% 0.00 in
01:29 20.6 °F 12.4 °F 30.58 in Calm     70% 0.00 in
01:34 20.6 °F 12.4 °F 30.58 in Calm     70% 0.00 in
01:39 20.5 °F 12.3 °F 30.57 in Calm     70% 0.00 in
01:44 20.2 °F 12.0 °F 30.58 in Calm     70% 0.00 in
01:49 19.9 °F 12.0 °F 30.58 in Calm     71% 0.00 in
01:54 19.6 °F 12.0 °F 30.58 in Calm     72% 0.00 in
01:59 19.2 °F 11.6 °F 30.58 in Calm     72% 0.00 in
02:04 19.4 °F 12.2 °F 30.58 in Calm     73% 0.00 in
02:09 19.7 °F 12.4 °F 30.58 in Calm     73% 0.00 in
02:14 19.7 °F 12.4 °F 30.58 in Calm     73% 0.00 in
02:19 19.7 °F 12.8 °F 30.58 in Calm     74% 0.00 in
02:24 19.7 °F 12.8 °F 30.58 in Calm     74% 0.00 in
02:29 19.3 °F 12.4 °F 30.58 in Calm     74% 0.00 in
02:34 19.1 °F 12.2 °F 30.58 in Calm     74% 0.00 in
02:39 18.8 °F 12.2 °F 30.58 in Calm     75% 0.00 in
02:44 18.7 °F 12.4 °F 30.58 in Calm     76% 0.00 in
02:49 18.8 °F 12.8 °F 30.58 in Calm     77% 0.00 in
02:54 18.8 °F 12.8 °F 30.58 in Calm     77% 0.00 in
02:59 18.6 °F 12.6 °F 30.58 in Calm     77% 0.00 in
03:04 18.5 °F 12.8 °F 30.59 in Calm     78% 0.00 in
03:09 18.4 °F 12.7 °F 30.58 in Calm     78% 0.00 in
03:14 18.2 °F 12.8 °F 30.59 in Calm     79% 0.00 in
03:19 18.2 °F 13.1 °F 30.59 in Calm     80% 0.00 in
03:24 18.2 °F 12.8 °F 30.58 in Calm     79% 0.00 in
03:29 17.9 °F 12.5 °F 30.58 in Calm     79% 0.00 in
03:34 17.6 °F 12.5 °F 30.58 in Calm     80% 0.00 in
03:39 17.5 °F 12.7 °F 30.58 in Calm     81% 0.00 in
03:44 17.5 °F 12.4 °F 30.59 in Calm     80% 0.00 in
03:49 17.2 °F 12.1 °F 30.59 in Calm     80% 0.00 in
03:54 17.0 °F 11.9 °F 30.59 in Calm     80% 0.00 in
03:59 16.9 °F 11.8 °F 30.59 in Calm     80% 0.00 in
04:04 16.8 °F 12.0 °F 30.59 in Calm     81% 0.00 in
04:09 16.6 °F 11.8 °F 30.58 in Calm     81% 0.00 in
04:14 16.4 °F 11.6 °F 30.59 in Calm     81% 0.00 in
04:19 16.2 °F 11.7 °F 30.59 in Calm     82% 0.00 in
04:24 16.2 °F 11.7 °F 30.59 in Calm     82% 0.00 in
04:29 16.1 °F 11.6 °F 30.59 in Calm     82% 0.00 in
04:34 15.9 °F 11.4 °F 30.59 in Calm     82% 0.00 in
04:39 15.9 °F 11.7 °F 30.59 in Calm     83% 0.00 in
04:49 15.8 °F 11.6 °F 30.59 in Calm     83% 0.00 in
04:54 15.8 °F 11.8 °F 30.59 in Calm     84% 0.00 in
04:59 15.7 °F 11.7 °F 30.59 in Calm     84% 0.00 in
05:04 15.7 °F 11.7 °F 30.60 in Calm     84% 0.00 in
05:09 15.6 °F 11.6 °F 30.60 in Calm     84% 0.00 in
05:14 15.7 °F 11.7 °F 30.60 in Calm     84% 0.00 in
05:19 15.4 °F 11.4 °F 30.60 in Calm     84% 0.00 in
05:24 15.3 °F 11.3 °F 30.61 in Calm     84% 0.00 in
05:29 15.4 °F 11.4 °F 30.61 in Calm     84% 0.00 in
05:34 15.7 °F 11.7 °F 30.61 in Calm     84% 0.00 in
05:39 15.5 °F 11.5 °F 30.61 in Calm     84% 0.00 in
05:44 15.6 °F 11.6 °F 30.61 in Calm     84% 0.00 in
05:49 15.7 °F 11.7 °F 30.61 in Calm     84% 0.00 in
05:54 15.7 °F 11.7 °F 30.61 in Calm     84% 0.00 in
05:59 15.7 °F 11.5 °F 30.61 in Calm     83% 0.00 in
06:04 15.7 °F 11.5 °F 30.61 in Calm     83% 0.00 in
06:09 15.6 °F 11.6 °F 30.61 in Calm     84% 0.00 in
06:14 15.6 °F 11.6 °F 30.61 in Calm     84% 0.00 in
06:19 15.5 °F 11.5 °F 30.61 in Calm     84% 0.00 in
06:24 15.2 °F 11.0 °F 30.61 in Calm     83% 0.00 in
06:29 15.3 °F 11.3 °F 30.62 in Calm     84% 0.00 in
06:34 15.4 °F 11.4 °F 30.62 in Calm     84% 0.00 in
06:39 15.1 °F 11.1 °F 30.62 in Calm     84% 0.00 in
06:44 15.2 °F 11.2 °F 30.62 in Calm     84% 0.00 in
06:49 15.1 °F 11.1 °F 30.62 in Calm     84% 0.00 in
06:54 15.3 °F 11.6 °F 30.62 in Calm     85% 0.00 in
06:59 15.5 °F 11.8 °F 30.62 in Calm     85% 0.00 in
07:04 15.7 °F 12.0 °F 30.62 in Calm     85% 0.00 in
07:09 16.3 °F 12.6 °F 30.62 in Calm     85% 0.00 in
07:19 16.6 °F 12.6 °F 30.62 in Calm     84% 0.00 in
07:24 16.7 °F 12.7 °F 30.63 in Calm     84% 0.00 in
07:29 16.8 °F 12.8 °F 30.63 in Calm     84% 0.00 in
07:34 16.4 °F 12.4 °F 30.63 in Calm     84% 0.00 in
07:39 16.8 °F 13.1 °F 30.63 in Calm     85% 0.00 in
07:44 17.3 °F 13.3 °F 30.63 in Calm     84% 0.00 in
07:49 17.7 °F 13.7 °F 30.64 in Calm     84% 0.00 in
07:54 18.0 °F 14.0 °F 30.64 in Calm     84% 0.00 in
07:59 18.3 °F 14.0 °F 30.64 in Calm   2.0 mph 83% 0.00 in
08:04 18.5 °F 14.2 °F 30.64 in Calm   3.0 mph 83% 0.00 in
08:09 18.7 °F 14.4 °F 30.64 in East 1.0 mph 3.0 mph 83% 0.00 in
08:19 18.9 °F 14.3 °F 30.64 in Calm   3.0 mph 82% 0.00 in
08:24 19.3 °F 14.7 °F 30.64 in Calm   3.0 mph 82% 0.00 in
08:29 19.7 °F 14.8 °F 30.64 in ESE 2.0 mph 2.0 mph 81% 0.00 in
08:34 20.1 °F 14.9 °F 30.64 in Calm   2.0 mph 80% 0.00 in
08:39 20.8 °F 15.3 °F 30.64 in Calm   2.0 mph 79% 0.00 in
08:44 21.5 °F 16.0 °F 30.65 in Calm     79% 0.00 in
08:49 22.1 °F 16.0 °F 30.65 in Calm   3.0 mph 77% 0.00 in
08:54 22.5 °F 16.4 °F 30.65 in SSW 1.0 mph 3.0 mph 77% 0.00 in
08:59 22.9 °F 16.5 °F 30.65 in SSW 2.0 mph 4.0 mph 76% 0.00 in
09:04 23.2 °F 16.4 °F 30.65 in SSW 2.0 mph 4.0 mph 75% 0.00 in
09:09 23.7 °F 16.9 °F 30.65 in SSW 2.0 mph 4.0 mph 75% 0.00 in
09:14 24.1 °F 16.7 °F 30.65 in WSW 2.0 mph 4.0 mph 73% 0.00 in
09:19 24.3 °F 16.6 °F 30.65 in Calm   4.0 mph 72% 0.00 in
09:24 24.5 °F 16.8 °F 30.65 in South 1.0 mph 3.0 mph 72% 0.00 in
09:29 24.6 °F 16.2 °F 30.66 in WSW 2.0 mph 3.0 mph 70% 0.00 in
09:34 25.0 °F 16.6 °F 30.65 in Calm   4.0 mph 70% 0.00 in
09:39 25.1 °F 16.7 °F 30.65 in NE 1.0 mph 3.0 mph 70% 0.00 in
09:44 25.5 °F 16.4 °F 30.65 in NE 1.0 mph 3.0 mph 68% 0.00 in
09:49 26.6 °F 17.5 °F 30.65 in NE 1.0 mph 2.0 mph 68% 0.00 in
09:54 26.9 °F 17.7 °F 30.65 in Calm   2.0 mph 68% 0.00 in
09:59 26.9 °F 17.4 °F 30.65 in WSW 1.0 mph 5.0 mph 67% 0.00 in
10:04 25.8 °F 16.7 °F 30.65 in NW 1.0 mph 5.0 mph 68% 0.00 in
10:09 26.7 °F 17.2 °F 30.66 in WNW 2.0 mph 4.0 mph 67% 0.00 in
10:14 26.7 °F 16.9 °F 30.65 in NW 2.0 mph 4.0 mph 66% 0.00 in
10:19 26.8 °F 17.6 °F 30.65 in NNW 2.0 mph 4.0 mph 68% 0.00 in
10:24 27.9 °F 18.7 °F 30.65 in NNE 1.0 mph 3.0 mph 68% 0.00 in
10:29 28.2 °F 16.8 °F 30.65 in Calm   4.0 mph 62% 0.00 in
10:34 28.0 °F 17.0 °F 30.65 in SW 2.0 mph 4.0 mph 63% 0.00 in
10:39 28.3 °F 16.9 °F 30.65 in Calm   4.0 mph 62% 0.00 in
10:44 28.8 °F 17.4 °F 30.65 in SW 2.0 mph 4.0 mph 62% 0.00 in
10:49 28.6 °F 15.7 °F 30.65 in South 2.0 mph 5.0 mph 58% 0.00 in
10:54 28.8 °F 17.0 °F 30.65 in SSW 2.0 mph 5.0 mph 61% 0.00 in
10:59 29.4 °F 16.0 °F 30.65 in South 2.0 mph 4.0 mph 57% 0.00 in
11:04 28.9 °F 14.7 °F 30.65 in SE 2.0 mph 5.0 mph 55% 0.00 in
11:09 29.2 °F 16.2 °F 30.65 in SSE 1.0 mph 4.0 mph 58% 0.00 in
11:14 29.4 °F 16.4 °F 30.65 in ESE 1.0 mph 3.0 mph 58% 0.00 in
11:19 29.4 °F 16.4 °F 30.65 in South 1.0 mph 4.0 mph 58% 0.00 in
11:24 30.2 °F 16.8 °F 30.64 in South 2.0 mph 5.0 mph 57% 0.00 in
11:29 29.8 °F 16.4 °F 30.64 in South 3.0 mph 5.0 mph 57% 0.00 in
11:34 30.1 °F 16.7 °F 30.64 in WSW 3.0 mph 4.0 mph 57% 0.00 in
11:39 31.4 °F 18.3 °F 30.64 in WSW 3.0 mph 4.0 mph 58% 0.00 in
11:44 31.8 °F 16.2 °F 30.63 in WSW 1.0 mph 4.0 mph 52% 0.00 in
11:49 32.2 °F 18.7 °F 30.63 in WSW 2.0 mph 6.0 mph 57% 0.00 in
11:54 31.8 °F 16.6 °F 30.63 in NW 3.0 mph 7.0 mph 53% 0.00 in
11:59 32.2 °F 17.4 °F 30.63 in WSW 4.0 mph 6.0 mph 54% 0.00 in
12:04 32.1 °F 16.4 °F 30.63 in SSW 1.0 mph 7.0 mph 52% 0.00 in
12:09 31.4 °F 16.7 °F 30.63 in Calm   2.0 mph 54% 0.00 in
12:14 33.0 °F 18.1 °F 30.63 in SW 7.0 mph 7.0 mph 54% 0.00 in
12:19 32.7 °F 15.6 °F 30.62 in SW 3.0 mph 7.0 mph 49% 0.00 in
12:24 33.6 °F 17.8 °F 30.62 in SW 3.0 mph 7.0 mph 52% 0.00 in
12:34 33.3 °F 14.2 °F 30.62 in SSW 3.0 mph 8.0 mph 45% 0.00 in
12:39 33.9 °F 17.7 °F 30.62 in WNW 2.0 mph 6.0 mph 51% 0.00 in
12:44 33.5 °F 16.4 °F 30.62 in NW 2.0 mph 5.0 mph 49% 0.00 in
12:49 33.7 °F 15.6 °F 30.62 in West 3.0 mph 4.0 mph 47% 0.00 in
12:54 33.9 °F 16.3 °F 30.61 in SE 3.0 mph 7.0 mph 48% 0.00 in
12:59 34.6 °F 16.9 °F 30.61 in South 1.0 mph 4.0 mph 48% 0.00 in
13:04 34.8 °F 17.6 °F 30.61 in NNW 2.0 mph 7.0 mph 49% 0.00 in
13:09 34.8 °F 16.6 °F 30.61 in Calm   6.0 mph 47% 0.00 in
13:14 34.3 °F 15.1 °F 30.61 in North 1.0 mph 4.0 mph 45% 0.00 in
13:19 34.8 °F 15.6 °F 30.61 in West 2.0 mph 5.0 mph 45% 0.00 in
13:24 35.0 °F 16.3 °F 30.60 in WSW 2.0 mph 7.0 mph 46% 0.00 in
13:29 35.8 °F 17.0 °F 30.60 in West 3.0 mph 7.0 mph 46% 0.00 in
13:34 36.6 °F 17.2 °F 30.60 in WNW 3.0 mph 7.0 mph 45% 0.00 in
13:39 36.4 °F 16.0 °F 30.60 in SSW 5.0 mph 8.0 mph 43% 0.00 in
13:44 36.2 °F 15.8 °F 30.60 in SSW 5.0 mph 9.0 mph 43% 0.00 in
13:49 35.5 °F 14.6 °F 30.59 in WSW 2.0 mph 8.0 mph 42% 0.00 in
13:54 36.0 °F 11.6 °F 30.59 in SW 3.0 mph 8.0 mph 36% 0.00 in
13:59 36.0 °F 11.0 °F 30.59 in WSW 3.0 mph 9.0 mph 35% 0.00 in
14:04 36.9 °F 13.6 °F 30.58 in WNW 5.0 mph 7.0 mph 38% 0.00 in
14:09 36.8 °F 11.0 °F 30.58 in WSW 5.0 mph 9.0 mph 34% 0.00 in
14:14 36.7 °F 11.6 °F 30.58 in WSW 6.0 mph 7.0 mph 35% 0.00 in
14:19 37.1 °F 12.6 °F 30.58 in West 4.0 mph 9.0 mph 36% 0.00 in
14:24 36.8 °F 10.3 °F 30.57 in WSW 5.0 mph 9.0 mph 33% 0.00 in
14:29 37.1 °F 12.6 °F 30.57 in WSW 4.0 mph 8.0 mph 36% 0.00 in
14:34 36.7 °F 11.6 °F 30.57 in WNW 6.0 mph 10.0 mph 35% 0.00 in
14:39 37.2 °F 10.0 °F 30.56 in WSW 5.0 mph 8.0 mph 32% 0.00 in
14:44 37.2 °F 12.7 °F 30.56 in SW 5.0 mph 6.0 mph 36% 0.00 in
14:49 37.2 °F 9.3 °F 30.56 in SSW 2.0 mph 6.0 mph 31% 0.00 in
14:54 36.8 °F 10.3 °F 30.55 in SW 3.0 mph 6.0 mph 33% 0.00 in
14:59 37.2 °F 13.9 °F 30.55 in SW 4.0 mph 11.0 mph 38% 0.00 in
15:04 38.0 °F 14.6 °F 30.54 in SW 4.0 mph 11.0 mph 38% 0.00 in
15:09 38.0 °F 12.7 °F 30.54 in SW 4.0 mph 7.0 mph 35% 0.00 in
15:14 37.7 °F 12.5 °F 30.54 in SSW 1.0 mph 6.0 mph 35% 0.00 in
15:19 38.3 °F 12.3 °F 30.53 in SSW 4.0 mph 5.0 mph 34% 0.00 in
15:24 37.9 °F 13.9 °F 30.53 in NE 3.0 mph 6.0 mph 37% 0.00 in
15:29 38.4 °F 16.1 °F 30.53 in SSE 3.0 mph 7.0 mph 40% 0.00 in
15:34 39.0 °F 14.9 °F 30.53 in SSW 3.0 mph 7.0 mph 37% 0.00 in
15:39 39.3 °F 13.9 °F 30.52 in SW 3.0 mph 7.0 mph 35% 0.00 in
15:44 39.6 °F 14.2 °F 30.52 in SW 5.0 mph 5.0 mph 35% 0.00 in
15:49 39.8 °F 14.3 °F 30.52 in SSW 1.0 mph 7.0 mph 35% 0.00 in
15:54 40.0 °F 11.0 °F 30.52 in SE 1.0 mph 4.0 mph 30% 0.00 in
15:59 40.4 °F 12.1 °F 30.52 in South 2.0 mph 6.0 mph 31% 0.00 in
16:04 39.6 °F 9.1 °F 30.52 in SW 2.0 mph 6.0 mph 28% 0.00 in
16:09 39.9 °F 10.9 °F 30.52 in WSW 2.0 mph 8.0 mph 30% 0.00 in
16:14 40.0 °F 9.5 °F 30.51 in South 3.0 mph 6.0 mph 28% 0.00 in
16:19 40.0 °F 9.5 °F 30.51 in WSW 2.0 mph 6.0 mph 28% 0.00 in
16:24 40.0 °F 8.7 °F 30.50 in SSW 2.0 mph 6.0 mph 27% 0.00 in
16:34 40.8 °F 10.2 °F 30.49 in West 2.0 mph 4.0 mph 28% 0.00 in
16:39 40.7 °F 9.3 °F 30.49 in WSW 1.0 mph 5.0 mph 27% 0.00 in
16:44 40.4 °F 9.8 °F 30.49 in SSW 5.0 mph 5.0 mph 28% 0.00 in
16:49 40.0 °F 6.9 °F 30.49 in South 1.0 mph 5.0 mph 25% 0.00 in
16:54 39.5 °F 4.7 °F 30.49 in SW 1.0 mph 4.0 mph 23% 0.00 in
16:59 39.5 °F 9.0 °F 30.48 in SW 1.0 mph 4.0 mph 28% 0.00 in
17:04 40.3 °F 9.7 °F 30.48 in SW 2.0 mph 4.0 mph 28% 0.00 in
17:09 40.6 °F 6.6 °F 30.48 in SSW 2.0 mph 4.0 mph 24% 0.00 in
17:14 40.5 °F 9.1 °F 30.48 in NE 1.0 mph 4.0 mph 27% 0.00 in
17:19 40.8 °F 8.5 °F 30.48 in SSW 2.0 mph 3.0 mph 26% 0.00 in
17:24 40.9 °F 6.8 °F 30.48 in SW 1.0 mph 6.0 mph 24% 0.00 in
17:29 40.8 °F 8.5 °F 30.47 in WNW 3.0 mph 5.0 mph 26% 0.00 in
17:34 40.6 °F 8.3 °F 30.47 in WNW 3.0 mph 5.0 mph 26% 0.00 in
17:39 40.4 °F 8.2 °F 30.47 in WNW 3.0 mph 5.0 mph 26% 0.00 in
17:44 40.2 °F 6.2 °F 30.47 in Calm   2.0 mph 24% 0.00 in
17:49 40.0 °F 6.9 °F 30.46 in Calm   4.0 mph 25% 0.00 in
17:54 40.1 °F 8.7 °F 30.46 in NNW 2.0 mph 4.0 mph 27% 0.00 in
17:59 39.9 °F 8.6 °F 30.46 in NNW 2.0 mph 4.0 mph 27% 0.00 in
18:04 39.7 °F 6.7 °F 30.46 in NW 1.0 mph 4.0 mph 25% 0.00 in
18:14 39.1 °F 7.9 °F 30.45 in East 1.0 mph 2.0 mph 27% 0.00 in
18:19 38.8 °F 9.2 °F 30.45 in NE 1.0 mph 3.0 mph 29% 0.00 in
18:24 38.6 °F 7.4 °F 30.44 in SSW 1.0 mph 2.0 mph 27% 0.00 in
18:29 38.7 °F 8.3 °F 30.45 in West 1.0 mph 3.0 mph 28% 0.00 in
18:34 38.8 °F 9.2 °F 30.45 in NW 1.0 mph 3.0 mph 29% 0.00 in
18:39 38.7 °F 8.3 °F 30.45 in NNW 2.0 mph 3.0 mph 28% 0.00 in
18:44 38.6 °F 9.0 °F 30.45 in NNW 1.0 mph 3.0 mph 29% 0.00 in
18:49 38.6 °F 10.5 °F 30.45 in North 1.0 mph 4.0 mph 31% 0.00 in
18:54 38.4 °F 8.9 °F 30.45 in Calm   2.0 mph 29% 0.00 in
18:59 38.2 °F 10.2 °F 30.46 in North 2.0 mph 2.0 mph 31% 0.00 in
19:04 38.1 °F 10.1 °F 30.46 in NNW 2.0 mph 5.0 mph 31% 0.00 in
19:09 38.2 °F 10.9 °F 30.46 in Calm   4.0 mph 32% 0.00 in
19:14 38.2 °F 10.2 °F 30.45 in North 2.0 mph 4.0 mph 31% 0.00 in
19:19 38.2 °F 10.2 °F 30.45 in NE 2.0 mph 4.0 mph 31% 0.00 in
19:24 38.2 °F 10.2 °F 30.45 in ENE 2.0 mph 4.0 mph 31% 0.00 in
19:29 38.2 °F 11.6 °F 30.44 in NE 2.0 mph 4.0 mph 33% 0.00 in
19:39 38.2 °F 12.3 °F 30.44 in NE 3.0 mph 5.0 mph 34% 0.00 in
19:44 38.2 °F 12.3 °F 30.43 in NE 2.0 mph 5.0 mph 34% 0.00 in
19:49 38.2 °F 12.3 °F 30.43 in NE 2.0 mph 4.0 mph 34% 0.00 in
19:54 38.2 °F 12.3 °F 30.44 in NE 1.0 mph 5.0 mph 34% 0.00 in
19:59 38.2 °F 12.9 °F 30.44 in NE 4.0 mph 4.0 mph 35% 0.00 in
20:04 38.3 °F 12.3 °F 30.44 in ENE 3.0 mph 7.0 mph 34% 0.00 in
20:19 37.9 °F 12.0 °F 30.44 in NE 4.0 mph 8.0 mph 34% 0.00 in
20:24 37.7 °F 11.8 °F 30.44 in NE 4.0 mph 8.0 mph 34% 0.00 in
20:29 37.5 °F 12.3 °F 30.44 in NE 4.0 mph 8.0 mph 35% 0.00 in
20:34 37.1 °F 11.9 °F 30.43 in NE 3.0 mph 7.0 mph 35% 0.00 in
20:39 36.8 °F 12.3 °F 30.43 in East 2.0 mph 7.0 mph 36% 0.00 in
20:44 36.5 °F 13.3 °F 30.43 in NE 3.0 mph 7.0 mph 38% 0.00 in
20:49 36.3 °F 13.1 °F 30.43 in NE 3.0 mph 7.0 mph 38% 0.00 in
20:54 36.3 °F 13.7 °F 30.43 in ENE 5.0 mph 8.0 mph 39% 0.00 in
20:59 36.2 °F 14.7 °F 30.43 in NE 5.0 mph 7.0 mph 41% 0.00 in
21:04 36.2 °F 15.8 °F 30.43 in ENE 3.0 mph 8.0 mph 43% 0.00 in
21:09 36.2 °F 16.4 °F 30.43 in NE 3.0 mph 5.0 mph 44% 0.00 in
21:14 36.1 °F 16.8 °F 30.43 in ESE 4.0 mph 8.0 mph 45% 0.00 in
21:19 36.1 °F 16.8 °F 30.43 in ENE 3.0 mph 8.0 mph 45% 0.00 in
21:24 35.9 °F 17.1 °F 30.42 in ENE 2.0 mph 6.0 mph 46% 0.00 in
21:29 35.8 °F 17.0 °F 30.42 in ENE 3.0 mph 7.0 mph 46% 0.00 in
21:34 35.7 °F 17.4 °F 30.42 in ENE 4.0 mph 8.0 mph 47% 0.00 in
21:39 35.7 °F 17.4 °F 30.41 in NE 5.0 mph 9.0 mph 47% 0.00 in
21:44 35.6 °F 17.8 °F 30.41 in NE 5.0 mph 7.0 mph 48% 0.00 in
21:49 35.5 °F 17.7 °F 30.41 in ENE 3.0 mph 7.0 mph 48% 0.00 in
21:54 35.5 °F 17.7 °F 30.40 in ENE 3.0 mph 9.0 mph 48% 0.00 in
21:59 35.4 °F 18.1 °F 30.40 in ENE 3.0 mph 9.0 mph 49% 0.00 in
22:04 35.4 °F 18.1 °F 30.40 in ESE 2.0 mph 9.0 mph 49% 0.00 in
22:09 35.4 °F 18.1 °F 30.39 in East 6.0 mph 10.0 mph 49% 0.00 in
22:14 35.3 °F 18.0 °F 30.39 in ENE 4.0 mph 8.0 mph 49% 0.00 in
22:19 35.3 °F 18.5 °F 30.38 in ENE 4.0 mph 10.0 mph 50% 0.00 in
22:24 35.3 °F 18.5 °F 30.38 in ENE 4.0 mph 10.0 mph 50% 0.00 in
22:29 35.3 °F 18.5 °F 30.38 in ENE 4.0 mph 10.0 mph 50% 0.00 in
22:34 35.2 °F 18.4 °F 30.37 in ENE 4.0 mph 10.0 mph 50% 0.00 in
22:39 35.0 °F 18.7 °F 30.37 in ENE 3.0 mph 7.0 mph 51% 0.00 in
22:44 34.9 °F 18.6 °F 30.36 in SE 10.0 mph 10.0 mph 51% 0.00 in
22:49 34.8 °F 18.5 °F 30.36 in ESE 3.0 mph 10.0 mph 51% 0.00 in
22:54 34.9 °F 18.6 °F 30.36 in East 4.0 mph 10.0 mph 51% 0.00 in
22:59 35.0 °F 18.7 °F 30.35 in East 5.0 mph 10.0 mph 51% 0.00 in
23:04 35.0 °F 18.7 °F 30.35 in ESE 4.0 mph 7.0 mph 51% 0.00 in
23:09 35.0 °F 18.7 °F 30.34 in ENE 2.0 mph 6.0 mph 51% 0.00 in
23:14 35.0 °F 18.7 °F 30.34 in East 6.0 mph 8.0 mph 51% 0.00 in
23:19 34.9 °F 18.6 °F 30.33 in SSE 3.0 mph 9.0 mph 51% 0.00 in
23:24 34.8 °F 18.5 °F 30.33 in East 3.0 mph 9.0 mph 51% 0.00 in
23:29 34.9 °F 19.0 °F 30.33 in ESE 3.0 mph 7.0 mph 52% 0.00 in
23:34 35.0 °F 19.1 °F 30.33 in ESE 2.0 mph 7.0 mph 52% 0.00 in
23:39 35.1 °F 19.2 °F 30.33 in East 2.0 mph 6.0 mph 52% 0.00 in
23:44 35.2 °F 19.3 °F 30.33 in East 2.0 mph 6.0 mph 52% 0.00 in
23:49 35.3 °F 19.0 °F 30.33 in SSE 3.0 mph 6.0 mph 51% 0.00 in
23:54 35.4 °F 19.0 °F 30.33 in East 2.0 mph 6.0 mph 51% 0.00 in
23:59 35.6 °F 18.8 °F 30.34 in SSE 1.0 mph 4.0 mph 50% 0.00 in
Buffalo, New York, USA
Compliments of Weather Underground - 2.25 mb